Time,TemperatureF,DewpointF,PressureIn,WindDirection,WindDirectionDegrees,WindSpeedMPH,WindSpeedGustMPH,Humidity,HourlyPrecipIn,Conditions,Clouds,dailyrainin,SoftwareType,DateUTC
2013-04-10 00:02:00,23.0,17.0,-100.00,SW,230,5.0,6.0,78,-99.99,,,0.00,,2013-04-10 06:02:00,
2013-04-10 00:12:00,23.0,17.0,-100.00,SW,230,5.0,6.0,78,-99.99,,,0.00,,2013-04-10 06:12:00,
2013-04-10 00:22:00,23.0,17.0,-100.00,SW,230,5.0,6.0,78,-99.99,,,0.00,,2013-04-10 06:22:00,
2013-04-10 00:52:00,23.0,19.0,-100.00,SW,220,3.0,6.0,81,-99.99,,,0.00,,2013-04-10 06:52:00,
2013-04-10 01:02:00,23.0,19.0,-100.00,SW,220,3.0,6.0,81,-99.99,,,0.00,,2013-04-10 07:02:00,
2013-04-10 01:12:00,23.0,19.0,-100.00,SW,220,3.0,6.0,81,-99.99,,,0.00,,2013-04-10 07:12:00,
2013-04-10 01:22:00,23.0,19.0,-100.00,SW,220,3.0,6.0,81,-99.99,,,0.00,,2013-04-10 07:22:00,
2013-04-10 01:52:00,22.0,19.0,-100.00,South,180,6.0,7.0,88,-99.99,,,0.00,,2013-04-10 07:52:00,
2013-04-10 02:02:00,22.0,19.0,-100.00,South,180,6.0,7.0,88,-99.99,,,0.00,,2013-04-10 08:02:00,
2013-04-10 02:12:00,22.0,19.0,-100.00,South,180,6.0,7.0,88,-99.99,,,0.00,,2013-04-10 08:12:00,
2013-04-10 02:22:00,22.0,19.0,-100.00,South,180,6.0,7.0,88,-99.99,,,0.00,,2013-04-10 08:22:00,
2013-04-10 02:52:00,23.0,20.0,-100.00,SSE,150,9.0,9.0,89,-99.99,,,0.00,,2013-04-10 08:52:00,
2013-04-10 03:02:00,23.0,20.0,-100.00,SSE,150,9.0,9.0,89,-99.99,,,0.00,,2013-04-10 09:02:00,
2013-04-10 03:12:00,23.0,20.0,-100.00,SSE,150,9.0,9.0,89,-99.99,,,0.00,,2013-04-10 09:12:00,
2013-04-10 03:22:00,23.0,20.0,-100.00,SSE,150,9.0,9.0,89,-99.99,,,0.00,,2013-04-10 09:22:00,
2013-04-10 03:23:00,23.0,20.0,-100.00,SSE,165,8.0,8.0,89,-99.99,,,0.00,,2013-04-10 09:23:00,
2013-04-10 03:53:00,23.0,20.0,-100.00,SSE,165,8.0,8.0,89,-99.99,,,0.00,,2013-04-10 09:53:00,
2013-04-10 04:02:00,23.0,20.0,-100.00,SSE,165,8.0,8.0,89,-99.99,,,0.00,,2013-04-10 10:02:00,
2013-04-10 04:12:00,23.0,20.0,-100.00,SSE,165,8.0,8.0,89,-99.99,,,0.00,,2013-04-10 10:12:00,
2013-04-10 04:52:00,24.0,19.0,-100.00,SSE,150,11.0,12.0,81,-99.99,,,0.00,,2013-04-10 10:52:00,
2013-04-10 05:02:00,24.0,19.0,-100.00,SSE,150,11.0,12.0,81,-99.99,,,0.00,,2013-04-10 11:02:00,
2013-04-10 05:12:00,24.0,19.0,-100.00,SSE,150,11.0,12.0,81,-99.99,,,0.00,,2013-04-10 11:12:00,
2013-04-10 05:22:00,24.0,19.0,-100.00,SSE,150,11.0,12.0,81,-99.99,,,0.00,,2013-04-10 11:22:00,
2013-04-10 05:53:00,24.0,19.0,-100.00,SSE,155,12.0,13.0,79,-99.99,,,0.00,,2013-04-10 11:53:00,
2013-04-10 06:02:00,24.0,19.0,-100.00,SSE,155,12.0,13.0,79,-99.99,,,0.00,,2013-04-10 12:02:00,
2013-04-10 06:12:00,24.0,19.0,-100.00,SSE,155,12.0,13.0,79,-99.99,,,0.00,,2013-04-10 12:12:00,
2013-04-10 06:22:00,24.0,19.0,-100.00,SSE,155,12.0,13.0,79,-99.99,,,0.00,,2013-04-10 12:22:00,
2013-04-10 06:23:00,25.0,19.0,-100.00,SE,145,12.0,14.0,77,-99.99,,,0.00,,2013-04-10 12:23:00,
2013-04-10 06:52:00,25.0,19.0,-100.00,SE,145,12.0,14.0,77,-99.99,,,0.00,,2013-04-10 12:52:00,
2013-04-10 07:02:00,25.0,19.0,-100.00,SE,145,12.0,14.0,77,-99.99,,,0.00,,2013-04-10 13:02:00,
2013-04-10 07:12:00,25.0,19.0,-100.00,SE,145,12.0,14.0,77,-99.99,,,0.00,,2013-04-10 13:12:00,
2013-04-10 07:53:00,27.0,20.0,-100.00,SE,135,8.0,9.0,74,-99.99,,,0.00,,2013-04-10 13:53:00,
2013-04-10 08:02:00,27.0,20.0,-100.00,SE,135,8.0,9.0,74,-99.99,,,0.00,,2013-04-10 14:02:00,
2013-04-10 08:12:00,27.0,20.0,-100.00,SE,135,8.0,9.0,74,-99.99,,,0.00,,2013-04-10 14:12:00,
2013-04-10 08:22:00,27.0,20.0,-100.00,SE,135,8.0,9.0,74,-99.99,,,0.00,,2013-04-10 14:22:00,
2013-04-10 08:52:00,32.0,24.0,-100.00,SE,140,8.0,10.0,73,-99.99,,,-99.99,,2013-04-10 14:52:00,
2013-04-10 09:02:00,32.0,24.0,-100.00,SE,140,8.0,10.0,73,-99.99,,,-99.99,,2013-04-10 15:02:00,
2013-04-10 09:12:00,32.0,24.0,-100.00,SE,140,8.0,10.0,73,-99.99,,,-99.99,,2013-04-10 15:12:00,
2013-04-10 09:22:00,32.0,24.0,-100.00,SE,140,8.0,10.0,73,-99.99,,,-99.99,,2013-04-10 15:22:00,
2013-04-10 09:23:00,39.0,28.0,-100.00,SE,145,8.0,9.0,65,-99.99,,,0.00,,2013-04-10 15:23:00,
2013-04-10 09:52:00,39.0,28.0,-100.00,SE,145,8.0,9.0,65,-99.99,,,0.00,,2013-04-10 15:52:00,
2013-04-10 10:02:00,39.0,28.0,-100.00,SE,145,8.0,9.0,65,-99.99,,,0.00,,2013-04-10 16:02:00,
2013-04-10 10:12:00,39.0,28.0,-100.00,SE,145,8.0,9.0,65,-99.99,,,0.00,,2013-04-10 16:12:00,
2013-04-10 10:53:00,45.0,28.0,-100.00,SW,215,15.0,17.0,50,-99.99,,,0.00,,2013-04-10 16:53:00,
2013-04-10 11:02:00,45.0,28.0,-100.00,SW,215,15.0,17.0,50,-99.99,,,0.00,,2013-04-10 17:02:00,
2013-04-10 11:12:00,45.0,28.0,-100.00,SW,215,15.0,17.0,50,-99.99,,,0.00,,2013-04-10 17:12:00,
2013-04-10 11:22:00,45.0,28.0,-100.00,SW,215,15.0,17.0,50,-99.99,,,0.00,,2013-04-10 17:22:00,
2013-04-10 11:52:00,48.0,27.0,-100.00,SW,220,16.0,19.0,45,-99.99,,,-99.99,,2013-04-10 17:52:00,
2013-04-10 12:02:00,48.0,27.0,-100.00,SW,220,16.0,19.0,45,-99.99,,,-99.99,,2013-04-10 18:02:00,
2013-04-10 12:12:00,48.0,27.0,-100.00,SW,220,16.0,19.0,45,-99.99,,,-99.99,,2013-04-10 18:12:00,
2013-04-10 12:22:00,48.0,27.0,-100.00,SW,220,16.0,19.0,45,-99.99,,,-99.99,,2013-04-10 18:22:00,
2013-04-10 15:02:00,50.0,28.0,-100.00,SSW,210,19.0,22.0,42,-99.99,,,0.00,,2013-04-10 21:02:00,
2013-04-10 15:12:00,50.0,28.0,-100.00,SSW,210,19.0,22.0,42,-99.99,,,0.00,,2013-04-10 21:12:00,
2013-04-10 15:22:00,50.0,28.0,-100.00,SSW,210,19.0,22.0,42,-99.99,,,0.00,,2013-04-10 21:22:00,
2013-04-10 16:03:00,52.0,28.0,-100.00,SW,230,16.0,19.0,40,-99.99,,,0.00,,2013-04-10 22:03:00,
2013-04-10 16:12:00,52.0,28.0,-100.00,SW,230,16.0,19.0,40,-99.99,,,0.00,,2013-04-10 22:12:00,
2013-04-10 16:22:00,52.0,28.0,-100.00,SW,230,16.0,19.0,40,-99.99,,,0.00,,2013-04-10 22:22:00,
2013-04-10 17:02:00,49.0,29.0,-100.00,SW,235,17.0,19.0,45,-99.99,,,0.00,,2013-04-10 23:02:00,
2013-04-10 17:12:00,49.0,29.0,-100.00,SW,235,17.0,19.0,45,-99.99,,,0.00,,2013-04-10 23:12:00,
2013-04-10 18:02:00,49.0,29.0,-100.00,South,190,17.0,20.0,46,-99.99,,,0.00,,2013-04-11 00:02:00,
2013-04-10 18:12:00,49.0,29.0,-100.00,South,190,17.0,20.0,46,-99.99,,,0.00,,2013-04-11 00:12:00,
2013-04-10 18:22:00,49.0,29.0,-100.00,South,190,17.0,20.0,46,-99.99,,,0.00,,2013-04-11 00:22:00,
2013-04-10 19:02:00,50.0,31.0,-100.00,SSW,210,22.0,26.0,47,-99.99,,,0.00,,2013-04-11 01:02:00,
2013-04-10 19:12:00,50.0,31.0,-100.00,SSW,210,22.0,26.0,47,-99.99,,,0.00,,2013-04-11 01:12:00,
2013-04-10 19:22:00,50.0,31.0,-100.00,SSW,210,22.0,26.0,47,-99.99,,,0.00,,2013-04-11 01:22:00,
2013-04-10 20:02:00,49.0,30.0,-100.00,SW,215,18.0,22.0,48,-99.99,,,0.00,,2013-04-11 02:02:00,
2013-04-10 20:12:00,49.0,30.0,-100.00,SW,215,18.0,22.0,48,-99.99,,,0.00,,2013-04-11 02:12:00,
2013-04-10 20:22:00,49.0,30.0,-100.00,SW,215,18.0,22.0,48,-99.99,,,0.00,,2013-04-11 02:22:00,
2013-04-10 21:02:00,45.0,31.0,-100.00,SW,230,14.0,16.0,56,-99.99,,,0.00,,2013-04-11 03:02:00,
2013-04-10 21:12:00,45.0,31.0,-100.00,SW,230,14.0,16.0,56,-99.99,,,0.00,,2013-04-11 03:12:00,
2013-04-10 21:22:00,45.0,31.0,-100.00,SW,230,14.0,16.0,56,-99.99,,,0.00,,2013-04-11 03:22:00,
2013-04-10 22:03:00,44.0,32.0,-100.00,SW,225,14.0,16.0,63,-99.99,,,0.00,,2013-04-11 04:03:00,
2013-04-10 22:12:00,44.0,32.0,-100.00,SW,225,14.0,16.0,63,-99.99,,,0.00,,2013-04-11 04:12:00,
2013-04-10 22:22:00,44.0,32.0,-100.00,SW,225,14.0,16.0,63,-99.99,,,0.00,,2013-04-11 04:22:00,
2013-04-10 23:02:00,42.0,32.0,-100.00,SW,235,6.0,7.0,68,-99.99,,,0.00,,2013-04-11 05:02:00,
2013-04-10 23:12:00,42.0,32.0,-100.00,SW,235,6.0,7.0,68,-99.99,,,0.00,,2013-04-11 05:12:00,
2013-04-10 23:22:00,42.0,32.0,-100.00,SW,235,6.0,7.0,68,-99.99,,,0.00,,2013-04-11 05:22:00,